createdAt,value
2023-03-26T00:01:24.890Z,10.07
2023-03-26T00:04:04.569Z,10.09
2023-03-26T00:06:45.629Z,10.10
2023-03-26T00:09:25.991Z,10.12
2023-03-26T00:12:05.411Z,10.14
2023-03-26T00:14:49.964Z,10.15
2023-03-26T00:17:29.581Z,10.16
2023-03-26T00:20:09.310Z,10.17
2023-03-26T00:22:49.127Z,10.16
2023-03-26T00:25:29.522Z,10.16
2023-03-26T00:28:09.118Z,10.18
2023-03-26T00:30:53.545Z,10.19
2023-03-26T00:33:36.254Z,10.22
2023-03-26T00:36:18.698Z,10.25
2023-03-26T00:38:58.152Z,10.26
2023-03-26T00:41:38.090Z,10.30
2023-03-26T00:44:17.544Z,10.31
2023-03-26T00:47:01.964Z,10.30
2023-03-26T00:49:41.477Z,10.29
2023-03-26T00:52:20.832Z,10.28
2023-03-26T00:55:00.232Z,10.27
2023-03-26T00:57:39.638Z,10.27
2023-03-26T01:00:23.299Z,10.25
2023-03-26T01:03:08.038Z,10.24
2023-03-26T01:05:54.200Z,10.20
2023-03-26T01:08:39.411Z,10.17
2023-03-26T01:11:21.806Z,10.14
2023-03-26T01:14:05.261Z,10.13
2023-03-26T01:16:48.392Z,10.12
2023-03-26T01:19:39.193Z,10.12
2023-03-26T01:22:22.785Z,10.12
2023-03-26T01:25:08.461Z,10.12
2023-03-26T01:27:53.632Z,10.07
2023-03-26T01:30:42.779Z,10.04
2023-03-26T01:33:37.760Z,10.00
2023-03-26T01:36:27.881Z,9.96
2023-03-26T01:39:19.997Z,9.95
2023-03-26T01:42:10.279Z,9.94
2023-03-26T01:45:00.161Z,9.94
2023-03-26T01:47:42.306Z,9.93
2023-03-26T01:50:22.056Z,9.93
2023-03-26T01:53:01.421Z,9.95
2023-03-26T01:55:57.915Z,9.96
2023-03-26T01:58:55.835Z,9.95
2023-03-26T02:01:46.577Z,9.97
2023-03-26T02:04:33.601Z,9.99
2023-03-26T02:07:24.862Z,9.97
2023-03-26T02:10:11.659Z,9.97
2023-03-26T02:12:52.377Z,9.97
2023-03-26T02:15:36.813Z,9.95
2023-03-26T02:18:17.018Z,9.93
2023-03-26T02:20:56.954Z,9.91
2023-03-26T02:23:39.791Z,9.90
2023-03-26T02:26:19.169Z,9.90
2023-03-26T02:28:58.519Z,9.90
2023-03-26T02:31:43.021Z,9.88
2023-03-26T02:34:23.329Z,9.86
2023-03-26T02:37:03.198Z,9.86
2023-03-26T02:39:43.607Z,9.85
2023-03-26T02:42:23.087Z,9.83
2023-03-26T02:45:02.658Z,9.81
2023-03-26T02:47:47.266Z,9.80
2023-03-26T02:50:26.656Z,9.77
2023-03-26T02:53:06.228Z,9.75
2023-03-26T02:55:45.584Z,9.71
2023-03-26T02:58:26.553Z,9.68
2023-03-26T03:01:06.784Z,9.67
2023-03-26T03:03:51.375Z,9.63
2023-03-26T03:06:32.355Z,9.61
2023-03-26T03:09:11.683Z,9.59
2023-03-26T03:11:51.096Z,9.58
2023-03-26T03:14:30.437Z,9.56
2023-03-26T03:17:09.767Z,9.54
2023-03-26T03:19:54.274Z,9.51
2023-03-26T03:22:35.052Z,9.46
2023-03-26T03:25:15.619Z,9.40
2023-03-26T03:27:55.186Z,9.34
2023-03-26T03:30:34.518Z,9.28
2023-03-26T03:33:14.334Z,9.23
2023-03-26T03:36:00.555Z,9.18
2023-03-26T03:38:39.953Z,9.13
2023-03-26T03:41:19.800Z,9.08
2023-03-26T03:44:00.975Z,9.04
2023-03-26T03:46:40.458Z,8.98
2023-03-26T03:49:19.878Z,8.95
2023-03-26T03:52:04.644Z,8.88
2023-03-26T03:54:43.999Z,8.85
2023-03-26T03:57:23.394Z,8.82
2023-03-26T04:00:04.530Z,8.79
2023-03-26T04:02:49.023Z,8.76
2023-03-26T04:05:28.426Z,8.74
2023-03-26T04:08:13.326Z,8.72
2023-03-26T04:10:52.675Z,8.70
2023-03-26T04:13:32.473Z,8.68
2023-03-26T04:16:12.447Z,8.67
2023-03-26T04:18:51.815Z,8.66
2023-03-26T04:21:31.662Z,8.65
2023-03-26T04:24:17.325Z,8.66
2023-03-26T04:26:56.965Z,8.67
2023-03-26T04:29:44.033Z,8.69
2023-03-26T04:32:31.015Z,8.70
2023-03-26T04:35:11.513Z,8.71
2023-03-26T04:37:51.949Z,8.73
2023-03-26T04:40:38.594Z,8.73
2023-03-26T04:43:20.796Z,8.73
2023-03-26T04:46:04.595Z,8.74
2023-03-26T04:48:44.457Z,8.74
2023-03-26T04:51:25.744Z,8.74
2023-03-26T04:54:09.291Z,8.73
2023-03-26T04:57:00.783Z,8.72
2023-03-26T04:59:42.779Z,8.72
2023-03-26T05:02:22.097Z,8.71
2023-03-26T05:05:04.229Z,8.72
2023-03-26T05:07:43.662Z,8.71
2023-03-26T05:10:24.912Z,8.71
2023-03-26T05:13:09.374Z,8.70
2023-03-26T05:15:48.728Z,8.69
2023-03-26T05:18:28.003Z,8.67
2023-03-26T05:21:07.624Z,8.66
2023-03-26T05:23:46.948Z,8.65
2023-03-26T05:26:27.679Z,8.64
2023-03-26T05:29:12.116Z,8.64
2023-03-26T05:31:51.840Z,8.64
2023-03-26T05:34:31.202Z,8.64
2023-03-26T05:37:11.281Z,8.64
2023-03-26T05:39:50.588Z,8.65
2023-03-26T05:42:30.215Z,8.67
2023-03-26T05:45:16.703Z,8.69
2023-03-26T05:47:59.614Z,8.71
2023-03-26T05:50:38.967Z,8.72
2023-03-26T05:53:19.479Z,8.74
2023-03-26T05:56:00.048Z,8.76
2023-03-26T05:58:43.327Z,8.78
2023-03-26T06:01:27.723Z,8.81
2023-03-26T06:04:07.386Z,8.84
2023-03-26T06:06:46.906Z,8.88
2023-03-26T06:09:26.281Z,8.90
2023-03-26T06:12:05.651Z,8.92
2023-03-26T06:14:45.249Z,8.94
2023-03-26T06:17:29.637Z,8.96
2023-03-26T06:20:09.643Z,9.00
2023-03-26T06:22:49.424Z,9.03
2023-03-26T06:25:28.962Z,9.06
2023-03-26T06:28:08.265Z,9.09
2023-03-26T06:30:47.848Z,9.12
2023-03-26T06:33:32.479Z,9.15
2023-03-26T06:36:12.919Z,9.18
2023-03-26T06:38:52.352Z,9.21
2023-03-26T06:41:31.763Z,9.25
2023-03-26T06:44:11.133Z,9.28
2023-03-26T06:46:51.530Z,9.31
2023-03-26T06:49:36.163Z,9.33
2023-03-26T06:52:15.621Z,9.36
2023-03-26T06:54:54.992Z,9.39
2023-03-26T06:57:34.541Z,9.42
2023-03-26T07:00:15.385Z,9.45
2023-03-26T07:02:55.193Z,9.46
2023-03-26T07:05:39.720Z,9.48
2023-03-26T07:08:20.619Z,9.50
2023-03-26T07:11:00.040Z,9.52
2023-03-26T07:13:41.200Z,9.54
2023-03-26T07:16:20.702Z,9.56
2023-03-26T07:19:00.115Z,9.58
2023-03-26T07:21:45.559Z,9.60
2023-03-26T07:24:25.959Z,9.63
2023-03-26T07:27:14.066Z,9.67
2023-03-26T07:29:59.758Z,9.73
2023-03-26T07:32:48.854Z,9.78
2023-03-26T07:35:34.234Z,9.82
2023-03-26T07:38:42.733Z,9.84
2023-03-26T07:41:35.015Z,9.87
2023-03-26T07:44:34.076Z,9.89
2023-03-26T07:47:31.095Z,9.92
2023-03-26T07:50:11.737Z,9.95
2023-03-26T07:52:51.802Z,9.99
2023-03-26T07:55:37.091Z,10.03
2023-03-26T07:58:43.953Z,10.06
2023-03-26T08:01:37.063Z,10.07
2023-03-26T08:04:53.017Z,10.06
2023-03-26T08:07:43.789Z,10.05
2023-03-26T08:10:30.260Z,10.05
2023-03-26T08:13:28.345Z,10.05
2023-03-26T08:16:17.844Z,10.05
2023-03-26T08:19:05.358Z,10.04
2023-03-26T08:21:54.962Z,10.01
2023-03-26T08:24:47.616Z,9.99
2023-03-26T08:27:35.763Z,9.99
2023-03-26T08:30:27.905Z,9.99
2023-03-26T08:33:19.251Z,10.01
2023-03-26T08:36:00.213Z,10.02
2023-03-26T08:38:39.592Z,10.06
2023-03-26T08:41:49.207Z,10.09
2023-03-26T08:45:10.811Z,10.15
2023-03-26T08:48:18.185Z,10.20
2023-03-26T08:51:40.216Z,10.24
2023-03-26T08:54:47.706Z,10.29
2023-03-26T08:57:59.548Z,10.35
2023-03-26T09:01:19.424Z,10.40
2023-03-26T09:04:28.419Z,10.44
2023-03-26T09:07:40.819Z,10.46
2023-03-26T09:10:56.292Z,10.48
2023-03-26T09:14:03.687Z,10.50
2023-03-26T09:17:24.877Z,10.52
2023-03-26T09:20:46.685Z,10.55
2023-03-26T09:23:57.301Z,10.55
2023-03-26T09:26:53.009Z,10.57
2023-03-26T09:30:03.397Z,10.61
2023-03-26T09:33:18.044Z,10.65
2023-03-26T09:36:23.502Z,10.69
2023-03-26T09:39:17.394Z,10.73
2023-03-26T09:42:15.460Z,10.76
2023-03-26T09:45:27.104Z,10.79
2023-03-26T09:48:27.023Z,10.83
2023-03-26T09:51:37.036Z,10.89
2023-03-26T09:54:57.302Z,10.95
2023-03-26T09:57:59.972Z,11.02
2023-03-26T10:00:48.787Z,11.05
2023-03-26T10:03:42.155Z,11.09
2023-03-26T10:06:55.820Z,11.12
2023-03-26T10:09:57.596Z,11.04
2023-03-26T10:12:44.062Z,10.93
2023-03-26T10:15:39.492Z,10.86
2023-03-26T10:18:34.104Z,10.74
2023-03-26T10:21:25.275Z,10.65
2023-03-26T10:24:31.224Z,10.59
2023-03-26T10:27:36.110Z,10.58
2023-03-26T10:30:41.694Z,10.57
2023-03-26T10:33:33.033Z,10.59
2023-03-26T10:36:32.374Z,10.63
2023-03-26T10:39:42.412Z,10.70
2023-03-26T10:43:04.450Z,10.81
2023-03-26T10:46:11.416Z,11.08
2023-03-26T10:49:12.304Z,11.49
2023-03-26T10:52:00.592Z,11.94
2023-03-26T10:55:02.398Z,12.25
2023-03-26T10:57:51.585Z,12.52
2023-03-26T11:00:33.234Z,12.87
2023-03-26T11:03:42.015Z,13.06
2023-03-26T11:06:35.376Z,13.12
2023-03-26T11:09:28.422Z,13.12
2023-03-26T11:12:26.507Z,13.15
2023-03-26T11:15:26.074Z,13.40
2023-03-26T11:18:19.068Z,13.76
2023-03-26T11:21:19.970Z,14.00
2023-03-26T11:24:15.047Z,13.88
2023-03-26T11:27:14.936Z,13.70
2023-03-26T11:30:10.584Z,13.72
2023-03-26T11:32:55.099Z,14.16
2023-03-26T11:35:41.343Z,14.31
2023-03-26T11:38:33.161Z,14.59
2023-03-26T11:41:22.712Z,14.91
2023-03-26T11:44:08.445Z,15.03
2023-03-26T11:46:53.107Z,14.88
2023-03-26T11:49:34.280Z,14.44
2023-03-26T11:52:13.747Z,14.23
2023-03-26T11:55:00.620Z,13.87
2023-03-26T11:57:44.368Z,13.50
2023-03-26T12:00:28.617Z,13.37
2023-03-26T12:03:08.024Z,13.26
2023-03-26T12:05:56.672Z,13.20
2023-03-26T12:08:42.212Z,13.20
2023-03-26T12:11:35.903Z,13.14
2023-03-26T12:14:15.587Z,13.09
2023-03-26T12:17:10.063Z,13.04
2023-03-26T12:19:51.904Z,12.92
2023-03-26T12:22:41.716Z,12.80
2023-03-26T12:25:26.384Z,12.67
2023-03-26T12:28:19.678Z,12.64
2023-03-26T12:31:05.654Z,13.05
2023-03-26T12:33:46.150Z,13.42
2023-03-26T12:36:30.409Z,13.70
2023-03-26T12:40:10.740Z,13.90
2023-03-26T12:44:53.176Z,14.02
2023-03-26T12:45:46.658Z,13.91
2023-03-26T12:48:47.032Z,13.71
2023-03-26T12:51:39.320Z,13.64
2023-03-26T12:54:34.323Z,13.61
2023-03-26T12:57:27.796Z,13.57
2023-03-26T13:00:26.132Z,13.42
2023-03-26T13:03:43.140Z,13.27
2023-03-26T13:07:00.155Z,13.09
2023-03-26T13:10:06.703Z,13.03
2023-03-26T13:12:53.886Z,13.53
2023-03-26T13:15:40.277Z,14.28
2023-03-26T13:18:36.860Z,14.67
2023-03-26T13:21:25.924Z,15.28
2023-03-26T13:24:18.215Z,15.41
2023-03-26T13:27:12.759Z,17.06
2023-03-26T13:30:04.168Z,18.49
2023-03-26T13:32:58.939Z,18.88
2023-03-26T13:36:00.235Z,19.25
2023-03-26T13:39:00.788Z,19.40
2023-03-26T13:41:59.262Z,18.84
2023-03-26T13:45:04.550Z,18.57
2023-03-26T13:47:52.402Z,17.45
2023-03-26T13:50:36.422Z,18.74
2023-03-26T13:53:26.662Z,19.49
2023-03-26T13:56:08.187Z,17.65
2023-03-26T13:58:55.278Z,16.00
2023-03-26T14:01:42.379Z,15.09
2023-03-26T14:04:33.396Z,14.84
2023-03-26T14:07:23.801Z,14.42
2023-03-26T14:10:15.758Z,14.07
2023-03-26T14:13:03.797Z,13.78
2023-03-26T14:15:51.814Z,13.67
2023-03-26T14:18:44.313Z,13.76
2023-03-26T14:21:59.234Z,13.82
2023-03-26T14:25:11.763Z,13.93
2023-03-26T14:28:11.688Z,14.27
2023-03-26T14:31:10.642Z,16.54
2023-03-26T14:34:04.354Z,17.06
2023-03-26T14:37:12.993Z,16.69
2023-03-26T14:40:16.157Z,16.06
2023-03-26T14:43:18.622Z,15.54
2023-03-26T14:46:13.423Z,15.26
2023-03-26T14:49:31.947Z,15.19
2023-03-26T14:52:15.761Z,15.05
2023-03-26T14:55:00.560Z,14.88
2023-03-26T14:58:10.213Z,14.85
2023-03-26T15:01:36.263Z,15.10
2023-03-26T15:04:49.368Z,15.26
2023-03-26T15:07:56.055Z,15.19
2023-03-26T15:11:01.347Z,14.97
2023-03-26T15:14:08.230Z,14.80
2023-03-26T15:17:30.082Z,14.61
2023-03-26T15:20:43.574Z,14.61
2023-03-26T15:23:54.300Z,14.66
2023-03-26T15:27:21.509Z,14.73
2023-03-26T15:30:45.621Z,14.89
2023-03-26T15:34:04.129Z,15.14
2023-03-26T15:37:24.042Z,15.36
2023-03-26T15:40:30.710Z,15.36
2023-03-26T15:43:19.529Z,15.26
2023-03-26T15:46:33.496Z,15.22
2023-03-26T15:49:23.973Z,15.00
2023-03-26T15:52:13.856Z,14.87
2023-03-26T15:55:03.032Z,14.66
2023-03-26T15:57:50.576Z,14.54
2023-03-26T16:00:33.098Z,14.52
2023-03-26T16:03:40.988Z,14.58
2023-03-26T16:06:35.583Z,14.70
2023-03-26T16:09:46.927Z,14.94
2023-03-26T16:12:38.623Z,15.05
2023-03-26T16:15:37.838Z,14.94
2023-03-26T16:18:45.173Z,14.68
2023-03-26T16:21:47.292Z,14.55
2023-03-26T16:24:33.536Z,14.35
2023-03-26T16:27:35.397Z,14.16
2023-03-26T16:30:34.754Z,13.90
2023-03-26T16:33:22.691Z,13.63
2023-03-26T16:36:35.576Z,13.50
2023-03-26T16:39:28.705Z,13.39
2023-03-26T16:42:16.877Z,13.26
2023-03-26T16:45:10.792Z,13.20
2023-03-26T16:48:03.085Z,13.10
2023-03-26T16:50:54.381Z,12.95
2023-03-26T16:53:48.399Z,12.82
2023-03-26T16:56:38.371Z,12.69
2023-03-26T16:59:43.456Z,12.55
2023-03-26T17:02:34.195Z,12.38
2023-03-26T17:05:25.183Z,12.20
2023-03-26T17:08:12.446Z,12.05
2023-03-26T17:11:07.252Z,11.92
2023-03-26T17:14:02.288Z,11.80
2023-03-26T17:16:47.792Z,11.71
2023-03-26T17:19:40.901Z,11.66
2023-03-26T17:22:37.211Z,11.47
2023-03-26T17:25:30.419Z,11.26
2023-03-26T17:28:34.394Z,11.11
2023-03-26T17:31:28.365Z,11.02
2023-03-26T17:34:38.385Z,10.94
2023-03-26T17:37:32.556Z,10.88
2023-03-26T17:40:36.359Z,10.85
2023-03-26T17:43:45.129Z,10.82
2023-03-26T17:46:41.867Z,10.69
2023-03-26T17:49:28.257Z,10.61
2023-03-26T17:52:22.879Z,10.50
2023-03-26T17:55:04.109Z,10.45
2023-03-26T17:57:51.198Z,10.37
2023-03-26T18:00:41.148Z,10.29
2023-03-26T18:03:30.841Z,10.29
2023-03-26T18:06:18.995Z,10.31
2023-03-26T18:09:13.205Z,10.31
2023-03-26T18:12:26.827Z,10.33
2023-03-26T18:15:28.989Z,10.30
2023-03-26T18:18:21.101Z,10.25
2023-03-26T18:21:03.590Z,10.24
2023-03-26T18:23:46.507Z,10.21
2023-03-26T18:26:30.120Z,10.22
2023-03-26T18:29:27.010Z,10.22
2023-03-26T18:32:08.571Z,10.23
2023-03-26T18:34:55.399Z,10.26
2023-03-26T18:37:36.519Z,10.28
2023-03-26T18:40:20.443Z,10.28
2023-03-26T18:43:02.812Z,10.27
2023-03-26T18:45:46.339Z,10.26
2023-03-26T18:48:28.504Z,10.24
2023-03-26T18:51:17.139Z,10.15
2023-03-26T18:53:59.599Z,10.07
2023-03-26T18:56:43.667Z,10.00
2023-03-26T18:59:33.665Z,9.96
2023-03-26T19:02:20.029Z,9.94
2023-03-26T19:04:59.959Z,9.94
2023-03-26T19:07:45.235Z,9.95
2023-03-26T19:10:26.731Z,9.96
2023-03-26T19:13:08.650Z,9.99
2023-03-26T19:15:50.398Z,10.03
2023-03-26T19:18:33.752Z,10.07
2023-03-26T19:21:14.468Z,10.13
2023-03-26T19:24:00.801Z,10.14
2023-03-26T19:26:40.468Z,10.15
2023-03-26T19:29:23.205Z,10.14
2023-03-26T19:32:10.306Z,10.07
2023-03-26T19:34:52.559Z,10.04
2023-03-26T19:37:35.080Z,10.00
2023-03-26T19:40:31.096Z,9.97
2023-03-26T19:43:10.497Z,9.95
2023-03-26T19:45:59.606Z,9.94
2023-03-26T19:48:46.247Z,9.95
2023-03-26T19:51:30.135Z,9.96
2023-03-26T19:54:20.406Z,9.98
2023-03-26T19:57:04.941Z,9.97
2023-03-26T19:59:44.256Z,9.95
2023-03-26T20:02:30.422Z,9.94
2023-03-26T20:05:09.772Z,9.91
2023-03-26T20:07:51.424Z,9.88
2023-03-26T20:10:30.875Z,9.85
2023-03-26T20:13:22.374Z,9.79
2023-03-26T20:16:09.811Z,9.75
2023-03-26T20:18:52.223Z,9.72
2023-03-26T20:21:33.474Z,9.71
2023-03-26T20:24:19.766Z,9.68
2023-03-26T20:26:59.103Z,9.65
2023-03-26T20:29:43.637Z,9.63
2023-03-26T20:32:28.461Z,9.61
2023-03-26T20:35:08.468Z,9.57
2023-03-26T20:37:48.290Z,9.57
2023-03-26T20:40:28.132Z,9.57
2023-03-26T20:43:07.854Z,9.57
2023-03-26T20:45:53.255Z,9.56
2023-03-26T20:48:32.928Z,9.56
2023-03-26T20:51:13.906Z,9.55
2023-03-26T20:53:54.672Z,9.53
2023-03-26T20:56:34.122Z,9.53
2023-03-26T20:59:13.462Z,9.52
2023-03-26T21:01:58.234Z,9.51
2023-03-26T21:04:37.584Z,9.52
2023-03-26T21:07:18.525Z,9.53
2023-03-26T21:09:59.347Z,9.53
2023-03-26T21:12:47.550Z,9.51
2023-03-26T21:15:28.895Z,9.54
2023-03-26T21:18:14.383Z,9.54
2023-03-26T21:21:20.083Z,9.56
2023-03-26T21:24:07.527Z,9.58
2023-03-26T21:26:57.544Z,9.59
2023-03-26T21:29:37.401Z,9.58
2023-03-26T21:32:18.562Z,9.55
2023-03-26T21:35:04.671Z,9.53
2023-03-26T21:37:45.287Z,9.50
2023-03-26T21:40:26.414Z,9.48
2023-03-26T21:43:06.360Z,9.44
2023-03-26T21:45:46.545Z,9.39
2023-03-26T21:48:26.517Z,9.37
2023-03-26T21:51:11.706Z,9.34
2023-03-26T21:53:51.831Z,9.33
2023-03-26T21:56:48.768Z,9.28
2023-03-26T21:59:39.905Z,9.24
2023-03-26T22:02:30.538Z,9.21
2023-03-26T22:05:20.303Z,9.19
2023-03-26T22:08:09.389Z,9.15
2023-03-26T22:10:49.186Z,9.12
2023-03-26T22:13:28.974Z,9.08
2023-03-26T22:16:08.867Z,9.06
2023-03-26T22:18:48.308Z,9.05
2023-03-26T22:21:27.629Z,9.04
2023-03-26T22:24:13.406Z,9.05
2023-03-26T22:26:52.805Z,9.05
2023-03-26T22:29:32.158Z,9.06
2023-03-26T22:32:11.784Z,9.08
2023-03-26T22:34:53.338Z,9.10
2023-03-26T22:37:32.731Z,9.14
2023-03-26T22:40:19.135Z,9.16
2023-03-26T22:42:58.686Z,9.20
2023-03-26T22:45:38.683Z,9.25
2023-03-26T22:48:18.119Z,9.30
2023-03-26T22:51:05.004Z,9.34
2023-03-26T22:53:44.904Z,9.37
2023-03-26T22:56:29.316Z,9.40
2023-03-26T22:59:10.187Z,9.45
2023-03-26T23:01:49.578Z,9.50
2023-03-26T23:04:31.481Z,9.53
2023-03-26T23:07:11.961Z,9.56
2023-03-26T23:09:51.292Z,9.57
2023-03-26T23:12:35.679Z,9.58
2023-03-26T23:15:16.456Z,9.58
2023-03-26T23:17:55.841Z,9.56
2023-03-26T23:20:40.393Z,9.55
2023-03-26T23:23:19.898Z,9.51
2023-03-26T23:26:00.088Z,9.46
2023-03-26T23:28:44.985Z,9.44
2023-03-26T23:31:26.593Z,9.41
2023-03-26T23:34:06.933Z,9.35
2023-03-26T23:36:46.764Z,9.30
2023-03-26T23:39:27.476Z,9.28
2023-03-26T23:42:06.812Z,9.28
2023-03-26T23:44:52.196Z,9.28
2023-03-26T23:47:35.423Z,9.26
2023-03-26T23:50:18.093Z,9.23
2023-03-26T23:52:57.948Z,9.20
2023-03-26T23:55:37.944Z,9.16
2023-03-26T23:58:17.247Z,9.12
